Time;durP1;ratioP1;P1;durP2;ratioP2;P2;SDS_P1;SDS_P2;PMS_P1;PMS_P2;Temp;Humidity;BMP_temperature;BMP_pressure;BME280_temperature;BME280_humidity;BME280_pressure;Samples;Min_cycle;Max_cycle;Signal;HPM_P1;HPM_P2
2022/07/27 00:01:13;;;;;;;2.05;0.70;;;;;;;16.23;67.02;101687.66;5032496;28;20507;-73
2022/07/27 00:03:39;;;;;;;4.00;0.85;;;;;;;16.25;67.12;101685.69;5049108;28;20044;-74
2022/07/27 00:06:05;;;;;;;3.70;1.00;;;;;;;16.29;67.13;101686.97;5044269;28;20051;-74
2022/07/27 00:08:31;;;;;;;5.93;1.08;;;;;;;16.30;67.01;101683.38;5046510;28;20047;-74
2022/07/27 00:10:56;;;;;;;5.25;1.17;;;;;;;16.29;67.09;101682.59;5043950;28;20040;-74
2022/07/27 00:13:22;;;;;;;3.92;1.10;;;;;;;16.29;67.40;101679.97;5045915;28;20036;-74
2022/07/27 00:15:48;;;;;;;6.85;1.00;;;;;;;16.29;67.23;101686.97;5040203;28;20047;-74
2022/07/27 00:18:13;;;;;;;4.05;1.15;;;;;;;16.33;66.89;101688.25;5059896;28;20440;-73
2022/07/27 00:20:40;;;;;;;5.28;1.35;;;;;;;16.21;67.40;101689.66;5029461;28;20039;-74
2022/07/27 00:23:05;;;;;;;8.18;1.20;;;;;;;16.19;67.67;101692.44;5045654;28;20024;-74
2022/07/27 00:25:30;;;;;;;4.50;1.00;;;;;;;16.15;67.64;101689.34;5025572;28;20035;-74
2022/07/27 00:27:56;;;;;;;5.72;0.77;;;;;;;16.15;67.89;101691.16;5028552;28;20032;-74
2022/07/27 00:30:22;;;;;;;3.92;0.77;;;;;;;16.10;67.92;101690.84;5064453;28;20029;-75
2022/07/27 00:32:48;;;;;;;3.80;0.85;;;;;;;16.12;67.82;101697.53;5025181;28;20028;-74
2022/07/27 00:35:13;;;;;;;3.90;1.10;;;;;;;16.14;68.15;101692.13;5046819;28;20032;-74
2022/07/27 00:37:39;;;;;;;5.57;1.00;;;;;;;16.06;67.82;101689.56;5063581;28;20086;-74
2022/07/27 00:40:06;;;;;;;5.25;0.95;;;;;;;16.05;68.24;101687.91;5043643;28;20048;-74
2022/07/27 00:42:32;;;;;;;7.38;1.05;;;;;;;16.03;68.46;101687.25;5029461;28;20036;-74
2022/07/27 00:44:58;;;;;;;2.65;0.93;;;;;;;15.98;68.41;101687.78;5065575;28;20382;-74
2022/07/27 00:47:24;;;;;;;7.18;1.00;;;;;;;15.95;68.81;101691.56;5031439;28;20144;-74
2022/07/27 00:49:50;;;;;;;2.88;1.00;;;;;;;15.95;68.74;101688.94;5065798;28;20032;-74
2022/07/27 00:52:16;;;;;;;4.85;0.90;;;;;;;15.88;68.67;101684.53;5060907;28;20489;-74
2022/07/27 00:54:43;;;;;;;4.28;1.15;;;;;;;15.84;68.77;101688.50;5048391;28;20040;-74
2022/07/27 00:57:10;;;;;;;4.70;0.88;;;;;;;15.83;69.00;101686.88;5043918;28;20020;-74
2022/07/27 00:59:36;;;;;;;5.38;1.08;;;;;;;15.77;69.11;101683.94;5062780;28;20482;-74
2022/07/27 01:02:02;;;;;;;1.98;0.88;;;;;;;15.71;69.13;101683.78;5064300;28;20481;-74
2022/07/27 01:04:27;;;;;;;5.25;1.08;;;;;;;15.68;69.39;101679.69;5062828;28;20083;-74
2022/07/27 01:06:53;;;;;;;4.47;1.02;;;;;;;15.70;69.30;101689.97;5062527;28;20080;-75
2022/07/27 01:12:05;;;;;;;4.68;1.08;;;;;;;15.57;69.86;101688.69;5066910;28;20090;-74
2022/07/27 01:14:31;;;;;;;4.00;1.35;;;;;;;15.53;69.98;101691.81;5058588;28;20417;-74
2022/07/27 01:16:56;;;;;;;4.20;1.40;;;;;;;15.51;70.05;101685.94;5043336;28;20025;-74
2022/07/27 01:19:22;;;;;;;3.85;0.80;;;;;;;15.50;70.22;101685.16;5045362;28;20764;-74
2022/07/27 01:21:48;;;;;;;4.07;1.48;;;;;;;15.53;70.03;101686.59;5061428;28;20036;-74
2022/07/27 01:24:13;;;;;;;3.92;0.90;;;;;;;15.45;70.22;101684.81;5063972;28;20063;-74
2022/07/27 01:26:39;;;;;;;6.00;1.20;;;;;;;15.45;70.35;101690.03;5027648;28;20028;-73
2022/07/27 01:29:04;;;;;;;2.60;1.15;;;;;;;15.42;70.18;101687.75;5029518;28;20064;-74
2022/07/27 01:31:30;;;;;;;2.15;0.90;;;;;;;15.36;70.60;101689.22;5059474;28;20039;-73
2022/07/27 01:33:57;;;;;;;5.50;0.98;;;;;;;15.32;70.75;101687.94;5047488;28;20468;-74
2022/07/27 01:36:22;;;;;;;4.00;1.08;;;;;;;15.34;70.64;101693.81;5058729;28;20059;-74
2022/07/27 01:38:48;;;;;;;4.35;0.73;;;;;;;15.31;70.77;101685.47;5042994;28;20025;-74
2022/07/27 01:41:13;;;;;;;2.97;1.05;;;;;;;15.25;71.11;101686.16;5057451;28;20733;-73
2022/07/27 01:43:39;;;;;;;3.03;1.00;;;;;;;15.25;71.02;101691.38;5058174;28;20040;-73
2022/07/27 01:46:05;;;;;;;5.15;1.35;;;;;;;15.24;71.34;101681.91;5060423;28;20097;-73
2022/07/27 01:48:31;;;;;;;2.53;1.00;;;;;;;15.21;71.26;101682.25;5062482;28;20029;-73
2022/07/27 01:50:56;;;;;;;3.88;0.85;;;;;;;15.16;71.39;101672.28;5060017;28;20028;-73
2022/07/27 01:53:23;;;;;;;2.83;0.77;;;;;;;15.16;71.28;101674.88;5043894;28;20102;-74
2022/07/27 01:55:49;;;;;;;3.97;0.90;;;;;;;15.13;71.38;101672.63;5045477;28;20425;-74
2022/07/27 01:58:16;;;;;;;2.00;0.85;;;;;;;15.07;71.64;101679.31;5063253;28;20630;-73
2022/07/27 02:00:41;;;;;;;2.67;1.25;;;;;;;15.03;71.93;101683.25;5065363;28;20034;-73
2022/07/27 02:03:08;;;;;;;3.72;0.80;;;;;;;15.03;72.04;101690.25;5046611;28;20036;-73
2022/07/27 02:05:35;;;;;;;4.82;2.05;;;;;;;15.02;71.76;101681.59;5048003;28;20687;-73
2022/07/27 02:08:02;;;;;;;4.82;1.67;;;;;;;15.02;71.71;101686.00;5045260;28;20036;-73
2022/07/27 02:10:27;;;;;;;4.22;1.10;;;;;;;14.96;71.99;101679.66;5042848;28;20040;-73
2022/07/27 02:12:53;;;;;;;5.30;2.03;;;;;;;14.85;72.44;101680.78;5060753;28;20409;-73
2022/07/27 02:15:22;;;;;;;3.20;0.80;;;;;;;14.85;72.43;101678.16;5064421;28;20528;-73
2022/07/27 02:17:48;;;;;;;5.68;1.33;;;;;;;14.87;71.92;101683.25;5043399;28;20032;-72
2022/07/27 02:20:17;;;;;;;5.15;1.15;;;;;;;14.88;72.02;101683.09;5042441;28;20109;-74
2022/07/27 02:22:43;;;;;;;4.22;1.13;;;;;;;14.87;71.95;101681.44;5058250;28;20406;-73
2022/07/27 02:25:10;;;;;;;4.15;1.13;;;;;;;14.87;71.84;101688.47;5069452;28;20039;-73
2022/07/27 02:27:35;;;;;;;2.35;0.98;;;;;;;14.87;71.78;101686.66;5028785;28;20102;-73
2022/07/27 02:30:02;;;;;;;3.72;1.52;;;;;;;14.83;71.89;101680.13;5049812;28;20044;-73
2022/07/27 02:32:27;;;;;;;3.30;1.00;;;;;;;14.81;72.03;101679.47;5048630;28;20470;-73
2022/07/27 02:34:52;;;;;;;2.45;0.95;;;;;;;14.76;72.25;101677.34;5063114;28;20044;-73
2022/07/27 02:37:18;;;;;;;5.25;1.00;;;;;;;14.73;72.36;101682.06;5046170;28;20047;-73
2022/07/27 02:39:43;;;;;;;4.32;1.20;;;;;;;14.70;72.40;101674.56;5062405;28;20028;-73
2022/07/27 02:42:09;;;;;;;2.60;1.15;;;;;;;14.62;72.54;101672.78;5045203;28;20055;-73
2022/07/27 02:44:34;;;;;;;4.85;1.52;;;;;;;14.56;73.05;101676.81;5063425;28;20029;-73
2022/07/27 02:47:00;;;;;;;3.42;1.27;;;;;;;14.53;73.10;101669.28;5050620;28;20420;-72
2022/07/27 02:49:25;;;;;;;6.93;2.45;;;;;;;14.47;73.35;101667.34;5066997;28;20040;-73
2022/07/27 02:51:52;;;;;;;5.05;1.30;;;;;;;14.45;73.30;101671.06;5048399;28;20029;-73
2022/07/27 02:54:20;;;;;;;4.40;1.95;;;;;;;14.45;73.08;101671.91;5045855;28;20033;-72
2022/07/27 02:56:47;;;;;;;4.10;1.38;;;;;;;14.42;73.26;101677.44;5065899;28;20056;-73
2022/07/27 02:59:12;;;;;;;2.53;1.23;;;;;;;14.40;73.52;101676.78;5048474;28;20075;-73
2022/07/27 03:01:38;;;;;;;5.57;1.67;;;;;;;14.35;73.76;101676.44;5029353;28;20451;-73
2022/07/27 03:04:03;;;;;;;4.68;2.10;;;;;;;14.31;73.82;101675.13;5032475;28;20111;-73
2022/07/27 03:06:29;;;;;;;4.07;1.25;;;;;;;14.31;73.66;101667.28;5048288;28;20028;-73
2022/07/27 03:08:54;;;;;;;7.65;1.63;;;;;;;14.25;73.92;101668.75;5066043;28;20028;-73
2022/07/27 03:11:20;;;;;;;4.45;1.58;;;;;;;14.21;74.11;101668.25;5065797;28;20669;-73
2022/07/27 03:13:45;;;;;;;5.90;1.70;;;;;;;14.17;74.24;101674.75;5034387;28;20032;-73
2022/07/27 03:16:11;;;;;;;7.05;1.85;;;;;;;14.06;74.87;101677.66;5067312;28;20037;-73
2022/07/27 03:18:37;;;;;;;5.65;1.60;;;;;;;13.97;75.45;101679.41;5046003;28;20036;-73
2022/07/27 03:21:03;;;;;;;5.05;1.75;;;;;;;13.93;75.80;101682.50;5044875;28;20753;-72
2022/07/27 03:23:28;;;;;;;5.05;2.20;;;;;;;13.93;75.72;101680.69;5064482;28;20068;-73
2022/07/27 03:25:55;;;;;;;5.80;1.80;;;;;;;13.96;75.56;101679.59;5047860;28;20733;-72
2022/07/27 03:28:20;;;;;;;6.00;1.50;;;;;;;13.95;75.47;101681.34;5046654;28;20086;-72
2022/07/27 03:30:46;;;;;;;6.28;1.60;;;;;;;13.96;75.32;101680.38;5066448;28;20032;-72
2022/07/27 03:33:11;;;;;;;8.23;2.83;;;;;;;13.94;75.45;101690.16;5046498;28;20033;-72
2022/07/27 03:35:37;;;;;;;6.75;1.73;;;;;;;13.90;75.51;101681.03;5048705;28;20043;-72
2022/07/27 03:38:02;;;;;;;3.70;1.42;;;;;;;13.89;75.56;101687.19;5064453;28;20025;-72
2022/07/27 03:40:29;;;;;;;3.35;1.83;;;;;;;13.89;75.79;101683.78;5064737;28;20489;-73
2022/07/27 03:42:54;;;;;;;4.55;1.60;;;;;;;13.89;75.61;101691.59;5044076;28;20032;-73
2022/07/27 03:45:19;;;;;;;2.95;1.67;;;;;;;13.86;75.82;101689.28;5061012;28;20094;-73
2022/07/27 03:47:45;;;;;;;6.35;1.70;;;;;;;13.85;75.96;101687.69;5031515;28;20028;-72
2022/07/27 03:50:11;;;;;;;4.10;2.10;;;;;;;13.85;75.83;101690.28;5030818;28;20524;-72
2022/07/27 03:52:36;;;;;;;2.00;1.40;;;;;;;13.84;75.79;101692.06;5045183;28;20696;-72
2022/07/27 03:55:02;;;;;;;4.47;1.77;;;;;;;13.81;76.04;101689.78;5045786;28;20428;-72
2022/07/27 03:57:28;;;;;;;4.05;1.80;;;;;;;13.78;76.29;101685.66;5048513;28;20040;-72
2022/07/27 03:59:53;;;;;;;4.22;1.77;;;;;;;13.75;76.29;101688.63;5068555;28;20051;-73
2022/07/27 04:02:19;;;;;;;5.22;1.77;;;;;;;13.73;76.36;101693.16;5064664;28;20086;-73
2022/07/27 04:04:44;;;;;;;6.65;1.52;;;;;;;13.69;76.47;101688.41;5059940;28;20612;-73
2022/07/27 04:07:09;;;;;;;5.63;1.75;;;;;;;13.69;76.57;101699.63;5045722;28;20028;-72
2022/07/27 04:09:36;;;;;;;6.88;1.75;;;;;;;13.67;76.68;101698.97;5046619;28;20044;-72
2022/07/27 04:12:02;;;;;;;7.78;1.65;;;;;;;13.63;76.79;101698.47;5062267;28;20121;-73
2022/07/27 04:14:28;;;;;;;3.33;1.70;;;;;;;13.61;76.91;101704.81;5047284;28;20123;-73
2022/07/27 04:16:53;;;;;;;5.05;2.15;;;;;;;13.58;77.18;101705.09;5045284;28;20800;-72
2022/07/27 04:19:18;;;;;;;4.32;2.22;;;;;;;13.58;77.25;101716.38;5047651;28;20029;-72
2022/07/27 04:21:44;;;;;;;8.77;2.13;;;;;;;13.54;77.56;101714.19;5046248;28;21840;-73
2022/07/27 04:24:09;;;;;;;5.60;2.10;;;;;;;13.49;78.02;101719.06;5062293;28;20040;-73
2022/07/27 04:26:35;;;;;;;3.38;1.60;;;;;;;13.46;78.50;101714.16;5061877;28;20028;-72
2022/07/27 04:29:01;;;;;;;6.32;2.20;;;;;;;13.43;78.64;101718.72;5064449;28;20554;-73
2022/07/27 04:31:26;;;;;;;5.15;1.88;;;;;;;13.46;78.77;101716.78;5028836;28;20035;-72
2022/07/27 04:33:52;;;;;;;4.35;1.70;;;;;;;13.48;78.52;101725.25;5045922;28;20028;-72
2022/07/27 04:36:17;;;;;;;5.03;1.75;;;;;;;13.51;78.31;101723.16;5027068;28;20402;-72
2022/07/27 04:38:44;;;;;;;7.30;2.20;;;;;;;13.54;78.46;101728.06;5060767;28;20140;-72
2022/07/27 04:41:09;;;;;;;4.85;1.90;;;;;;;13.53;79.01;101716.00;5042687;28;20115;-73
2022/07/27 04:43:35;;;;;;;4.15;1.60;;;;;;;13.54;79.27;101719.41;5061078;28;20043;-72
2022/07/27 04:46:04;;;;;;;3.95;2.30;;;;;;;13.52;79.55;101719.56;5045054;28;20662;-72
2022/07/27 04:48:33;;;;;;;4.38;2.22;;;;;;;13.50;79.92;101715.47;5046112;28;20056;-73
2022/07/27 04:50:59;;;;;;;6.82;2.88;;;;;;;13.42;80.54;101722.28;5062323;28;20078;-73
2022/07/27 04:53:25;;;;;;;7.22;2.47;;;;;;;13.41;80.83;101720.66;5045485;28;20031;-72
2022/07/27 04:55:50;;;;;;;7.80;2.72;;;;;;;13.43;81.32;101728.31;5046488;28;20101;-73
2022/07/27 04:58:16;;;;;;;7.10;2.45;;;;;;;13.42;81.42;101722.28;5047858;28;20059;-73
2022/07/27 05:00:42;;;;;;;5.13;2.88;;;;;;;13.44;81.60;101730.75;5046284;28;20036;-72
2022/07/27 05:03:08;;;;;;;6.13;2.88;;;;;;;13.50;81.53;101731.13;5047616;28;20043;-73
2022/07/27 05:05:34;;;;;;;7.78;3.10;;;;;;;13.48;81.81;101730.47;5065000;28;20038;-74
2022/07/27 05:08:00;;;;;;;9.63;3.38;;;;;;;13.45;81.77;101731.59;5063149;28;20037;-73
2022/07/27 05:10:25;;;;;;;7.63;2.92;;;;;;;13.50;81.67;101731.13;5045838;28;20047;-72
2022/07/27 05:12:51;;;;;;;10.52;2.97;;;;;;;13.55;81.67;101734.91;5059224;28;20143;-73
2022/07/27 05:15:17;;;;;;;6.05;3.22;;;;;;;13.62;81.52;101737.72;5046759;28;20101;-73
2022/07/27 05:17:42;;;;;;;6.43;2.90;;;;;;;13.66;81.27;101736.44;5062042;28;20033;-72
2022/07/27 05:20:09;;;;;;;8.68;2.85;;;;;;;13.71;81.08;101736.81;5047427;28;20441;-73
2022/07/27 05:22:34;;;;;;;8.98;3.08;;;;;;;13.80;80.64;101732.44;5045084;28;20034;-73
2022/07/27 05:25:00;;;;;;;8.68;3.22;;;;;;;13.88;80.65;101735.13;5028417;28;20025;-73
2022/07/27 05:27:26;;;;;;;9.35;3.33;;;;;;;13.95;80.70;101738.72;5046539;28;20028;-73
2022/07/27 05:29:51;;;;;;;7.88;3.70;;;;;;;13.97;80.34;101739.38;5045560;28;20033;-73
2022/07/27 05:32:17;;;;;;;9.40;3.63;;;;;;;14.03;80.21;101737.94;5057593;28;20033;-73
2022/07/27 05:34:44;;;;;;;7.18;3.35;;;;;;;14.08;79.87;101740.09;5039509;28;20105;-73
2022/07/27 05:37:11;;;;;;;8.13;3.28;;;;;;;14.09;79.91;101737.34;5058862;28;20024;-73
2022/07/27 05:39:36;;;;;;;6.20;3.10;;;;;;;14.14;79.72;101753.31;5042381;28;20016;-73
2022/07/27 05:42:03;;;;;;;8.68;3.20;;;;;;;14.15;79.36;101749.75;5041334;28;20076;-73
2022/07/27 05:44:28;;;;;;;8.75;3.03;;;;;;;14.23;79.37;101758.56;5046259;28;20684;-73
2022/07/27 05:46:54;;;;;;;6.00;2.90;;;;;;;14.44;79.07;101758.97;5042169;28;20485;-73
2022/07/27 05:49:20;;;;;;;3.83;2.72;;;;;;;14.35;78.56;101759.91;5060242;28;20048;-74
2022/07/27 05:51:45;;;;;;;8.23;3.38;;;;;;;14.35;78.23;101760.75;5063259;28;20547;-74
2022/07/27 05:54:11;;;;;;;8.05;3.13;;;;;;;14.47;77.85;101758.66;5045502;28;20068;-73
2022/07/27 05:56:37;;;;;;;7.63;3.22;;;;;;;14.66;77.09;101754.19;5040848;28;20713;-73
2022/07/27 05:59:03;;;;;;;10.65;3.80;;;;;;;14.96;75.57;101755.38;5044349;28;20024;-73
2022/07/27 06:01:28;;;;;;;6.72;2.90;;;;;;;15.12;74.47;101752.75;5043696;28;20435;-73
2022/07/27 06:03:53;;;;;;;5.55;2.90;;;;;;;15.51;73.53;101749.50;5043007;28;20032;-73
2022/07/27 06:09:03;;;;;;;6.93;3.00;;;;;;;16.23;70.34;101753.09;5059834;28;20047;-74
2022/07/27 06:11:29;;;;;;;5.57;2.58;;;;;;;16.42;68.79;101752.66;5057187;28;20035;-74
2022/07/27 06:13:54;;;;;;;7.47;2.40;;;;;;;16.76;68.22;101746.25;5044222;28;20036;-74
2022/07/27 06:16:21;;;;;;;7.18;2.60;;;;;;;17.14;67.26;101754.22;5044508;28;20596;-75
2022/07/27 06:18:46;;;;;;;5.80;2.70;;;;;;;17.37;65.32;101748.94;5020422;28;20029;-74
2022/07/27 06:21:12;;;;;;;6.63;1.98;;;;;;;17.51;64.64;101747.31;5060946;28;20082;-73
2022/07/27 06:23:38;;;;;;;4.85;1.95;;;;;;;17.83;63.77;101754.03;5053840;28;20032;-74
2022/07/27 06:26:03;;;;;;;8.02;2.00;;;;;;;18.10;62.90;101754.41;5063121;28;20070;-73
2022/07/27 06:28:29;;;;;;;6.53;2.83;;;;;;;18.28;61.77;101751.41;5058954;28;20043;-74
2022/07/27 06:30:55;;;;;;;7.35;2.05;;;;;;;18.61;61.62;101757.03;5060323;28;20033;-74
2022/07/27 06:33:27;;;;;;;7.00;2.17;;;;;;;18.80;60.23;101753.00;5056940;28;20063;-75
2022/07/27 06:35:54;;;;;;;7.63;2.20;;;;;;;18.92;58.85;101749.88;5062073;28;20039;-73
2022/07/27 06:38:21;;;;;;;6.75;1.83;;;;;;;19.18;58.91;101752.75;5062006;28;20036;-74
2022/07/27 06:40:51;;;;;;;5.97;1.65;;;;;;;19.48;58.39;101751.72;5052407;28;20021;-75
2022/07/27 06:43:21;;;;;;;4.75;1.58;;;;;;;19.61;56.61;101747.38;5044369;28;20079;-75
2022/07/27 06:45:47;;;;;;;4.55;1.48;;;;;;;19.70;57.04;101752.47;5062806;28;20128;-74
2022/07/27 06:48:13;;;;;;;6.22;1.33;;;;;;;19.71;55.42;101752.28;5046282;28;20111;-73
2022/07/27 06:50:38;;;;;;;15.27;7.22;;;;;;;19.85;55.81;101750.56;5044384;28;20033;-75
2022/07/27 06:53:04;;;;;;;10.88;1.65;;;;;;;19.83;55.35;101739.44;5042003;28;20044;-76
2022/07/27 06:55:30;;;;;;;3.47;0.98;;;;;;;19.82;54.88;101745.72;5047983;28;20039;-75
2022/07/27 06:57:55;;;;;;;6.55;1.30;;;;;;;19.37;54.75;101745.19;5062128;28;20435;-76
2022/07/27 07:00:21;;;;;;;4.07;1.10;;;;;;;19.60;54.66;101744.94;5030496;28;20058;-74
2022/07/27 07:02:58;;;;;;;6.07;1.35;;;;;;;19.90;53.90;101745.53;5043157;28;20123;-78
2022/07/27 07:05:25;;;;;;;11.15;2.40;;;;;;;20.18;52.60;101761.25;5044595;28;20123;-75
2022/07/27 07:07:51;;;;;;;6.28;1.83;;;;;;;20.53;51.62;101749.81;5065587;28;20033;-75
2022/07/27 07:10:17;;;;;;;6.70;1.02;;;;;;;20.67;50.52;101753.34;5047297;28;20093;-75
2022/07/27 07:12:42;;;;;;;10.52;1.88;;;;;;;20.23;51.44;101756.22;5043563;28;20020;-75
2022/07/27 07:15:09;;;;;;;1.85;0.77;;;;;;;20.59;50.05;101762.22;5047366;28;20032;-75
2022/07/27 07:17:35;;;;;;;8.43;1.40;;;;;;;21.16;49.42;101758.22;5046955;28;20165;-75
2022/07/27 07:20:02;;;;;;;3.08;0.80;;;;;;;22.01;48.37;101754.84;5034171;28;20437;-74
2022/07/27 07:22:28;;;;;;;5.93;1.20;;;;;;;22.33;47.32;101750.47;5044628;28;20036;-75
2022/07/27 07:24:53;;;;;;;2.55;0.80;;;;;;;21.69;47.70;101754.75;5051525;28;20034;-74
2022/07/27 07:27:22;;;;;;;4.43;0.80;;;;;;;22.35;46.56;101755.53;5032093;28;20043;-75
2022/07/27 07:29:48;;;;;;;7.90;0.90;;;;;;;21.12;49.24;101758.84;5049297;28;21264;-74
2022/07/27 07:32:14;;;;;;;3.15;1.00;;;;;;;20.82;49.85;101758.44;5046514;28;20040;-74
2022/07/27 07:34:40;;;;;;;5.60;1.00;;;;;;;21.47;48.26;101767.38;5048825;28;20476;-75
2022/07/27 07:37:06;;;;;;;4.32;0.70;;;;;;;21.18;47.95;101760.69;5045622;28;20608;-75
2022/07/27 07:39:31;;;;;;;4.72;0.70;;;;;;;20.50;49.33;101768.66;5031065;28;20025;-75
2022/07/27 07:41:57;;;;;;;3.53;0.75;;;;;;;21.24;47.11;101759.84;5064916;28;20462;-77
2022/07/27 07:44:22;;;;;;;2.88;0.93;;;;;;;21.75;46.14;101753.09;5046238;28;20036;-75
2022/07/27 07:46:48;;;;;;;2.10;0.63;;;;;;;22.37;45.13;101761.44;5032213;28;20158;-75
2022/07/27 07:49:14;;;;;;;2.38;0.43;;;;;;;23.30;43.94;101758.16;5046528;28;20032;-75
2022/07/27 07:51:39;;;;;;;5.22;0.80;;;;;;;23.79;41.98;101755.66;5044847;28;20412;-75
2022/07/27 07:54:05;;;;;;;7.78;0.93;;;;;;;23.99;41.95;101758.06;5067816;28;20044;-76
2022/07/27 07:56:30;;;;;;;3.97;0.70;;;;;;;23.87;42.73;101747.41;5066239;28;20031;-76
2022/07/27 07:58:56;;;;;;;1.55;0.40;;;;;;;24.58;41.36;101754.84;5046034;28;20576;-75
2022/07/27 08:01:24;;;;;;;3.05;0.85;;;;;;;24.57;40.90;101759.34;5046967;28;20036;-75
2022/07/27 08:03:51;;;;;;;4.82;0.80;;;;;;;24.62;40.19;101762.16;5064597;28;20044;-76
2022/07/27 08:06:17;;;;;;;3.90;0.60;;;;;;;24.31;40.47;101754.41;5068908;28;20115;-75
2022/07/27 08:08:42;;;;;;;2.58;0.50;;;;;;;24.40;40.66;101759.16;5071442;28;20028;-74
2022/07/27 08:11:08;;;;;;;5.95;0.80;;;;;;;24.72;40.05;101756.28;5067950;28;20063;-74
2022/07/27 08:13:33;;;;;;;5.75;0.95;;;;;;;23.18;41.46;101767.00;5049973;28;20033;-76
2022/07/27 08:15:59;;;;;;;4.50;0.60;;;;;;;24.15;40.98;101761.94;5070035;28;20028;-75
2022/07/27 08:18:24;;;;;;;4.32;1.30;;;;;;;24.97;39.67;101769.34;5064925;28;20032;-75
2022/07/27 08:20:50;;;;;;;6.50;1.00;;;;;;;25.46;38.35;101758.53;5067913;28;20093;-79
2022/07/27 08:23:15;;;;;;;4.10;0.50;;;;;;;25.35;37.24;101764.66;5066924;28;20035;-75
2022/07/27 08:25:41;;;;;;;2.15;0.52;;;;;;;24.58;37.81;101770.75;5064341;28;20458;-75
2022/07/27 08:28:06;;;;;;;5.30;0.60;;;;;;;24.08;39.35;101764.66;5067213;28;20028;-75
2022/07/27 08:30:32;;;;;;;3.13;0.50;;;;;;;23.23;41.18;101767.19;5066615;28;20040;-78
2022/07/27 08:33:02;;;;;;;2.03;0.50;;;;;;;22.18;42.88;101776.31;5050118;28;20284;-75
2022/07/27 08:35:29;;;;;;;5.47;0.57;;;;;;;21.83;43.99;101776.66;5047771;28;20028;-75
2022/07/27 08:37:55;;;;;;;1.88;0.60;;;;;;;21.51;44.83;101781.78;5043491;28;20036;-76
2022/07/27 08:40:21;;;;;;;2.45;0.80;;;;;;;21.29;45.93;101785.63;5068499;28;20048;-75
2022/07/27 08:42:47;;;;;;;2.22;0.55;;;;;;;21.07;46.43;101783.19;5042136;28;20032;-77
2022/07/27 08:45:15;;;;;;;2.00;0.50;;;;;;;20.93;46.22;101778.94;5048281;28;20020;-76
2022/07/27 08:47:41;;;;;;;4.05;1.20;;;;;;;21.31;45.82;101776.50;5064948;28;20167;-75
2022/07/27 08:50:22;;;;;;;1.50;0.60;;;;;;;22.12;44.78;101777.97;5045942;28;20028;-75
2022/07/27 08:52:54;;;;;;;3.63;0.65;;;;;;;23.47;42.26;101773.44;5031617;28;20047;-75
2022/07/27 08:55:21;;;;;;;5.53;0.80;;;;;;;24.11;40.25;101768.72;5061231;28;20111;-75
2022/07/27 08:57:47;;;;;;;1.33;0.63;;;;;;;24.67;39.26;101764.91;5042952;28;21638;-76
2022/07/27 09:00:12;;;;;;;3.97;0.70;;;;;;;23.67;41.55;101771.41;5046602;28;20029;-75
2022/07/27 09:02:40;;;;;;;3.78;0.65;;;;;;;22.42;43.84;101769.53;5066528;28;20993;-74
2022/07/27 09:05:07;;;;;;;6.57;0.98;;;;;;;21.95;44.61;101776.81;5067997;28;20029;-74
2022/07/27 09:07:33;;;;;;;9.48;0.60;;;;;;;22.31;44.93;101772.84;5028420;28;20085;-75
2022/07/27 09:09:58;;;;;;;5.15;0.50;;;;;;;23.12;43.16;101771.34;5031724;28;20764;-75
2022/07/27 09:12:28;;;;;;;3.65;0.80;;;;;;;23.82;42.00;101768.44;5044134;28;20040;-74
2022/07/27 09:15:06;;;;;;;3.78;0.50;;;;;;;23.78;41.65;101759.28;5059054;28;20127;-76
2022/07/27 09:17:33;;;;;;;4.55;1.15;;;;;;;24.08;39.62;101771.81;5041820;28;20036;-74
2022/07/27 09:20:02;;;;;;;10.52;0.88;;;;;;;23.08;41.87;101775.44;5047391;28;20307;-75
2022/07/27 09:22:51;;;;;;;6.57;1.15;;;;;;;22.96;41.71;101766.53;5046715;28;20040;-74
2022/07/27 09:25:20;;;;;;;1.85;0.38;;;;;;;22.86;40.94;101764.38;5059605;28;20891;-75
2022/07/27 09:27:48;;;;;;;2.75;0.45;;;;;;;23.44;40.19;101774.69;5044465;28;20040;-74
2022/07/27 09:30:17;;;;;;;1.90;0.60;;;;;;;24.29;38.64;101762.56;5023728;28;20040;-78
2022/07/27 09:32:55;;;;;;;5.68;1.05;;;;;;;24.20;38.01;101761.25;5043224;28;20058;-74
2022/07/27 09:35:32;;;;;;;3.75;0.60;;;;;;;24.16;38.54;101766.19;5064605;28;20044;-76
2022/07/27 09:38:23;;;;;;;3.67;0.60;;;;;;;23.81;39.10;101756.25;5063656;28;20036;-74
2022/07/27 09:41:02;;;;;;;2.90;0.75;;;;;;;23.89;38.73;101766.53;5063701;28;20444;-77
2022/07/27 09:43:28;;;;;;;7.03;0.80;;;;;;;23.55;40.37;101757.31;5060529;28;20115;-76
2022/07/27 09:45:54;;;;;;;3.08;0.63;;;;;;;23.95;39.75;101764.03;5063829;28;20743;-76
2022/07/27 09:48:22;;;;;;;3.28;0.52;;;;;;;23.21;41.28;101756.81;5063153;28;20503;-75
2022/07/27 09:50:57;;;;;;;3.90;0.57;;;;;;;23.80;40.21;101767.06;5046013;28;20121;-75
2022/07/27 09:53:25;;;;;;;3.85;0.65;;;;;;;23.39;39.92;101766.59;5065446;28;20033;-75
2022/07/27 09:56:12;;;;;;;7.13;0.40;;;;;;;22.80;38.40;101762.59;5045458;28;20458;-74
2022/07/27 09:58:37;;;;;;;5.13;0.85;;;;;;;22.19;38.90;101762.09;5043079;28;20032;-79
2022/07/27 10:01:03;;;;;;;2.05;0.30;;;;;;;22.00;39.73;101766.44;5030735;28;20143;-75
2022/07/27 10:03:29;;;;;;;1.58;0.50;;;;;;;22.12;40.86;101762.13;5038134;28;20024;-76
2022/07/27 10:05:54;;;;;;;2.13;0.45;;;;;;;22.21;40.25;101768.00;5040059;28;20028;-75
2022/07/27 10:08:21;;;;;;;2.22;0.52;;;;;;;22.79;40.61;101759.13;5030368;28;20583;-73
2022/07/27 10:10:47;;;;;;;1.98;0.30;;;;;;;22.63;40.15;101760.47;5061206;28;20411;-74
2022/07/27 10:13:12;;;;;;;3.25;0.50;;;;;;;23.09;40.27;101764.66;5061836;28;20036;-73
2022/07/27 10:15:40;;;;;;;1.83;0.50;;;;;;;23.19;39.22;101758.88;5058052;28;20315;-72
2022/07/27 10:18:15;;;;;;;3.40;0.50;;;;;;;23.62;39.21;101765.16;5041650;28;20089;-73
2022/07/27 10:20:44;;;;;;;4.78;0.68;;;;;;;24.31;38.07;101759.69;5063490;28;20037;-73
2022/07/27 10:23:28;;;;;;;3.13;0.98;;;;;;;23.83;37.08;101756.81;5045157;28;20047;-73
2022/07/27 10:26:25;;;;;;;3.58;0.50;;;;;;;23.84;37.82;101750.47;5037827;28;20082;-73
2022/07/27 10:28:58;;;;;;;1.60;0.70;;;;;;;24.03;37.57;101758.41;5060912;28;20036;-74
2022/07/27 10:31:27;;;;;;;2.03;0.40;;;;;;;23.69;36.79;101760.59;5044272;28;20040;-73
2022/07/27 10:33:55;;;;;;;4.40;0.63;;;;;;;23.46;36.53;101767.34;5061995;28;20032;-72
2022/07/27 10:36:26;;;;;;;6.80;0.75;;;;;;;23.38;36.98;101764.19;5061343;28;20035;-73
2022/07/27 10:38:57;;;;;;;1.17;0.40;;;;;;;23.32;37.03;101766.69;5059109;28;20127;-72
2022/07/27 10:41:34;;;;;;;1.45;0.40;;;;;;;23.66;36.19;101759.22;5049149;28;20036;-74
2022/07/27 10:44:21;;;;;;;2.38;0.40;;;;;;;22.77;39.04;101769.09;5057429;28;20032;-74
2022/07/27 10:46:51;;;;;;;2.80;0.40;;;;;;;22.57;39.74;101776.38;5057729;28;20092;-75
2022/07/27 10:49:18;;;;;;;3.72;0.73;;;;;;;22.31;40.33;101771.00;5055928;28;20075;-74
2022/07/27 10:51:44;;;;;;;3.65;1.23;;;;;;;22.20;40.89;101770.84;5061977;28;20028;-73
2022/07/27 10:54:25;;;;;;;2.50;0.40;;;;;;;21.91;41.21;101776.41;5054962;28;20039;-78
2022/07/27 10:56:53;;;;;;;1.65;0.40;;;;;;;21.92;41.03;101778.03;5046009;28;20037;-74
2022/07/27 10:59:37;;;;;;;2.08;0.38;;;;;;;22.19;40.71;101777.13;5029516;28;20173;-73
2022/07/27 11:02:07;;;;;;;4.60;0.73;;;;;;;22.07;41.51;101779.63;5046517;28;20032;-75
2022/07/27 11:04:41;;;;;;;2.17;0.70;;;;;;;22.17;41.94;101769.44;5046569;28;21430;-74
2022/07/27 11:07:07;;;;;;;6.35;0.60;;;;;;;21.94;41.63;101768.09;5061386;28;20646;-73
2022/07/27 11:09:37;;;;;;;1.00;0.40;;;;;;;22.08;42.07;101770.69;5048128;28;20033;-73
2022/07/27 11:12:04;;;;;;;2.67;0.60;;;;;;;22.07;41.36;101761.13;5043085;28;20032;-75
2022/07/27 11:14:30;;;;;;;5.78;0.68;;;;;;;22.41;40.01;101757.34;5066194;28;20116;-73
2022/07/27 11:16:57;;;;;;;2.40;0.60;;;;;;;23.26;40.29;101758.78;5065375;28;20131;-73
2022/07/27 11:19:23;;;;;;;1.75;0.40;;;;;;;23.20;38.62;101749.88;5063211;28;20024;-72
2022/07/27 11:21:51;;;;;;;2.72;0.40;;;;;;;23.45;37.90;101749.03;5065712;28;20504;-73
2022/07/27 11:24:17;;;;;;;1.05;0.40;;;;;;;23.63;37.66;101748.25;5068293;28;20127;-74
2022/07/27 11:26:45;;;;;;;6.80;0.80;;;;;;;23.58;37.35;101745.47;5064993;28;20401;-74
2022/07/27 11:29:14;;;;;;;1.50;0.40;;;;;;;23.56;36.64;101737.72;5071537;28;20048;-77